createdAt,value
2023-11-27T00:02:11.346Z,99492.09
2023-11-27T00:04:39.150Z,99482.75
2023-11-27T00:07:08.241Z,99475.81
2023-11-27T00:09:35.872Z,99472.22
2023-11-27T00:12:03.659Z,99465.50
2023-11-27T00:14:31.400Z,99453.78
2023-11-27T00:16:59.135Z,99457.06
2023-11-27T00:19:26.983Z,99450.16
2023-11-27T00:21:54.753Z,99447.53
2023-11-27T00:24:23.814Z,99443.38
2023-11-27T00:26:51.846Z,99445.88
2023-11-27T00:29:19.593Z,99433.47
2023-11-27T00:31:47.254Z,99426.16
2023-11-27T00:34:14.978Z,99425.34
2023-11-27T00:36:42.745Z,99419.78
2023-11-27T00:39:10.421Z,99419.25
2023-11-27T00:41:39.985Z,99414.00
2023-11-27T00:44:07.650Z,99411.00
2023-11-27T00:46:35.533Z,99416.81
2023-11-27T00:49:03.186Z,99414.00
2023-11-27T00:51:30.751Z,99408.50
2023-11-27T00:53:58.616Z,99406.84
2023-11-27T00:56:26.898Z,99402.59
2023-11-27T00:58:56.063Z,99400.25
2023-11-27T01:01:23.888Z,99396.09
2023-11-27T01:03:51.950Z,99404.50
2023-11-27T01:06:19.628Z,99398.16
2023-11-27T01:08:47.440Z,99397.31
2023-11-27T01:11:15.073Z,99394.31
2023-11-27T01:13:42.776Z,99396.94
2023-11-27T01:16:11.864Z,99393.75
2023-11-27T01:18:39.536Z,99397.06
2023-11-27T01:21:07.774Z,99399.94
2023-11-27T01:23:35.605Z,99383.25
2023-11-27T01:26:03.213Z,99382.69
2023-11-27T01:28:30.817Z,99387.78
2023-11-27T01:30:58.461Z,99384.34
2023-11-27T01:33:27.448Z,99380.38
2023-11-27T01:35:55.441Z,99376.09
2023-11-27T01:38:23.912Z,99370.94
2023-11-27T01:40:51.561Z,99368.03
2023-11-27T01:43:19.185Z,99363.06
2023-11-27T01:45:47.131Z,99353.84
2023-11-27T01:48:15.014Z,99350.22
2023-11-27T01:50:44.862Z,99350.09
2023-11-27T01:53:12.525Z,99339.16
2023-11-27T01:55:40.252Z,99337.22
2023-11-27T01:58:07.929Z,99337.53
2023-11-27T02:00:36.653Z,99341.13
2023-11-27T02:03:06.090Z,99330.94
2023-11-27T02:05:33.792Z,99333.72
2023-11-27T02:08:02.869Z,99324.03
2023-11-27T02:10:30.915Z,99319.88
2023-11-27T02:12:58.604Z,99321.09
2023-11-27T02:15:26.549Z,99322.66
2023-11-27T02:17:54.293Z,99313.94
2023-11-27T02:20:21.912Z,99305.88
2023-11-27T02:22:49.507Z,99295.59
2023-11-27T02:25:18.640Z,99302.19
2023-11-27T02:27:46.364Z,99293.94
2023-11-27T02:30:15.035Z,99282.78
2023-11-27T02:32:42.644Z,99286.38
2023-11-27T02:35:10.501Z,99281.41
2023-11-27T02:37:38.100Z,99287.66
2023-11-27T02:40:10.470Z,99284.91
2023-11-27T02:42:40.774Z,99278.44
2023-11-27T02:45:10.217Z,99276.22
2023-11-27T02:47:38.030Z,99276.41
2023-11-27T02:50:06.496Z,99267.16
2023-11-27T02:52:34.129Z,99263.44
2023-11-27T02:55:02.409Z,99266.19
2023-11-27T02:57:30.042Z,99258.88
2023-11-27T02:59:58.963Z,99255.56
2023-11-27T03:02:27.179Z,99250.19
2023-11-27T03:04:54.778Z,99253.78
2023-11-27T03:07:22.508Z,99248.03
2023-11-27T03:09:50.143Z,99243.97
2023-11-27T03:12:18.111Z,99244.41
2023-11-27T03:14:45.711Z,99236.41
2023-11-27T03:17:14.862Z,99233.13
2023-11-27T03:19:47.796Z,99237.28
2023-11-27T03:22:16.750Z,99225.00
2023-11-27T03:24:44.695Z,99232.75
2023-11-27T03:27:12.263Z,99229.53
2023-11-27T03:29:39.889Z,99225.13
2023-11-27T03:32:08.202Z,99230.50
2023-11-27T03:34:38.015Z,99223.47
2023-11-27T03:37:04.949Z,99221.81
2023-11-27T03:39:32.854Z,99214.94
2023-11-27T03:42:01.521Z,99208.03
2023-11-27T03:44:29.520Z,99210.38
2023-11-27T03:46:57.321Z,99202.66
2023-11-27T03:49:25.001Z,99206.94
2023-11-27T03:51:54.061Z,99196.72
2023-11-27T03:54:21.720Z,99188.03
2023-11-27T03:56:49.343Z,99186.16
2023-11-27T03:59:17.430Z,99181.88
2023-11-27T04:01:45.227Z,99182.53
2023-11-27T04:04:14.100Z,99189.63
2023-11-27T04:06:41.807Z,99179.97
2023-11-27T04:09:14.307Z,99168.97
2023-11-27T04:11:42.165Z,99160.41
2023-11-27T04:14:10.626Z,99166.09
2023-11-27T04:16:38.338Z,99154.41
2023-11-27T04:19:05.986Z,99155.25
2023-11-27T04:21:33.673Z,99152.22
2023-11-27T04:24:01.996Z,99151.94
2023-11-27T04:26:31.064Z,99142.16
2023-11-27T04:29:00.281Z,99149.56
2023-11-27T04:31:28.088Z,99146.44
2023-11-27T04:33:56.116Z,99136.22
2023-11-27T04:36:24.356Z,99137.31
2023-11-27T04:38:52.124Z,99142.41
2023-11-27T04:41:20.506Z,99131.09
2023-11-27T04:43:49.807Z,99135.78
2023-11-27T04:46:18.140Z,99133.19
2023-11-27T04:48:45.965Z,99129.94
2023-11-27T04:51:13.628Z,99123.44
2023-11-27T04:53:41.333Z,99120.69
2023-11-27T04:56:09.822Z,99124.69
2023-11-27T04:58:37.449Z,99119.03
2023-11-27T05:01:07.257Z,99111.50
2023-11-27T05:03:34.869Z,99109.31
2023-11-27T05:06:02.521Z,99106.00
2023-11-27T05:08:30.440Z,99103.78
2023-11-27T05:10:58.080Z,99101.97
2023-11-27T05:13:25.780Z,99100.47
2023-11-27T05:15:53.496Z,99096.06
2023-11-27T05:18:22.391Z,99091.13
2023-11-27T05:20:50.134Z,99092.66
2023-11-27T05:23:18.016Z,99084.09
2023-11-27T05:25:45.785Z,99080.34
2023-11-27T05:28:13.489Z,99088.19
2023-11-27T05:30:40.933Z,99086.72
2023-11-27T05:33:08.715Z,99084.75
2023-11-27T05:35:37.758Z,99081.03
2023-11-27T05:38:05.363Z,99082.00
2023-11-27T05:40:33.714Z,99074.59
2023-11-27T05:43:06.407Z,99070.97
2023-11-27T05:45:35.441Z,99069.59
2023-11-27T05:48:03.112Z,99066.31
2023-11-27T05:50:30.765Z,99062.72
2023-11-27T05:53:00.238Z,99056.13
2023-11-27T05:55:28.398Z,99057.50
2023-11-27T05:57:57.066Z,99047.16
2023-11-27T06:00:26.049Z,99042.75
2023-11-27T06:02:55.060Z,99041.97
2023-11-27T06:05:23.983Z,99037.41
2023-11-27T06:07:51.883Z,99033.28
2023-11-27T06:10:21.105Z,99038.53
2023-11-27T06:12:48.891Z,99032.72
2023-11-27T06:15:16.745Z,99027.63
2023-11-27T06:17:44.701Z,99026.94
2023-11-27T06:20:13.555Z,99021.31
2023-11-27T06:22:41.156Z,99011.41
2023-11-27T06:25:09.936Z,99013.84
2023-11-27T06:27:39.268Z,99012.88
2023-11-27T06:30:10.925Z,99012.22
2023-11-27T06:32:40.074Z,99002.75
2023-11-27T06:35:13.184Z,99008.47
2023-11-27T06:37:41.156Z,99003.38
2023-11-27T06:40:09.826Z,99004.63
2023-11-27T06:42:38.840Z,98992.31
2023-11-27T06:45:08.148Z,98986.47
2023-11-27T06:47:36.009Z,98993.22
2023-11-27T06:50:03.700Z,98984.41
2023-11-27T06:52:31.376Z,98979.81
2023-11-27T06:54:59.096Z,98971.56
2023-11-27T06:57:26.731Z,98970.59
2023-11-27T06:59:56.549Z,98967.44
2023-11-27T07:02:24.477Z,98963.84
2023-11-27T07:04:52.220Z,98963.94
2023-11-27T07:07:19.934Z,98960.91
2023-11-27T07:09:47.626Z,98951.28
2023-11-27T07:12:17.540Z,98945.53
2023-11-27T07:14:45.228Z,98948.88
2023-11-27T07:17:14.271Z,98947.84
2023-11-27T07:19:42.215Z,98937.69
2023-11-27T07:22:09.849Z,98931.50
2023-11-27T07:24:37.504Z,98931.25
2023-11-27T07:27:05.684Z,98927.47
2023-11-27T07:29:33.350Z,98924.28
2023-11-27T07:32:01.940Z,98922.25
2023-11-27T07:34:31.118Z,98919.34
2023-11-27T07:36:59.249Z,98910.81
2023-11-27T07:39:27.137Z,98904.34
2023-11-27T07:41:54.776Z,98902.56
2023-11-27T07:44:22.426Z,98904.56
2023-11-27T07:46:50.044Z,98891.88
2023-11-27T07:49:20.105Z,98894.13
2023-11-27T07:51:49.151Z,98885.44
2023-11-27T07:54:16.908Z,98881.41
2023-11-27T07:56:44.567Z,98871.44
2023-11-27T07:59:12.219Z,98870.97
2023-11-27T08:01:39.900Z,98875.41
2023-11-27T08:04:07.695Z,98863.91
2023-11-27T08:06:35.426Z,98866.88
2023-11-27T08:09:05.826Z,98867.09
2023-11-27T08:11:34.462Z,98861.88
2023-11-27T08:14:02.621Z,98855.34
2023-11-27T08:16:31.263Z,98851.25
2023-11-27T08:18:59.225Z,98853.41
2023-11-27T08:21:27.244Z,98842.41
2023-11-27T08:23:57.535Z,98844.22
2023-11-27T08:26:40.380Z,98843.44
2023-11-27T08:29:08.686Z,98843.22
2023-11-27T08:31:37.106Z,98835.97
2023-11-27T08:34:05.526Z,98843.03
2023-11-27T08:36:36.543Z,98841.25
2023-11-27T08:39:06.012Z,98829.66
2023-11-27T08:41:36.246Z,98829.44
2023-11-27T08:44:03.950Z,98826.66
2023-11-27T08:46:31.667Z,98828.06
2023-11-27T08:48:59.322Z,98822.66
2023-11-27T08:51:26.982Z,98818.91
2023-11-27T08:53:55.605Z,98821.25
2023-11-27T08:56:23.383Z,98814.00
2023-11-27T08:58:52.368Z,98807.09
2023-11-27T09:01:20.031Z,98803.50
2023-11-27T09:03:47.746Z,98814.03
2023-11-27T09:06:15.864Z,98798.56
2023-11-27T09:08:43.516Z,98796.09
2023-11-27T09:11:12.335Z,98788.28
2023-11-27T09:13:40.001Z,98779.47
2023-11-27T09:16:11.819Z,98773.75
2023-11-27T09:18:39.578Z,98761.94
2023-11-27T09:21:07.710Z,98776.47
2023-11-27T09:23:35.584Z,98760.59
2023-11-27T09:26:03.211Z,98749.19
2023-11-27T09:28:30.850Z,98755.88
2023-11-27T09:30:58.482Z,98742.34
2023-11-27T09:33:28.929Z,98744.16
2023-11-27T09:35:56.590Z,98742.50
2023-11-27T09:38:24.253Z,98728.22
2023-11-27T09:40:52.202Z,98733.94
2023-11-27T09:43:19.903Z,98734.25
2023-11-27T09:45:47.664Z,98725.69
2023-11-27T09:48:19.692Z,98721.56
2023-11-27T09:50:52.466Z,98723.75
2023-11-27T09:53:25.350Z,98711.84
2023-11-27T09:55:57.276Z,98697.50
2023-11-27T09:58:25.487Z,98699.13
2023-11-27T10:00:56.506Z,98699.09
2023-11-27T10:03:26.108Z,98695.91
2023-11-27T10:05:59.342Z,98696.88
2023-11-27T10:08:27.493Z,98686.13
2023-11-27T10:10:57.306Z,98675.34
2023-11-27T10:13:46.013Z,98666.34
2023-11-27T10:16:24.614Z,98665.56
2023-11-27T10:18:53.125Z,98651.59
2023-11-27T10:21:23.380Z,98650.75
2023-11-27T10:23:52.425Z,98645.06
2023-11-27T10:26:21.786Z,98624.97
2023-11-27T10:28:51.621Z,98621.81
2023-11-27T10:31:20.303Z,98609.50
2023-11-27T10:33:48.026Z,98603.47
2023-11-27T10:36:18.695Z,98604.16
2023-11-27T10:38:47.987Z,98593.78
2023-11-27T10:41:16.201Z,98581.69
2023-11-27T10:43:44.354Z,98575.09
2023-11-27T10:46:12.232Z,98574.09
2023-11-27T10:48:44.589Z,98557.56
2023-11-27T10:51:15.081Z,98558.72
2023-11-27T10:53:46.858Z,98532.66
2023-11-27T10:56:17.559Z,98529.88
2023-11-27T10:58:48.434Z,98520.09
2023-11-27T11:01:20.711Z,98510.09
2023-11-27T11:03:55.670Z,98506.22
2023-11-27T11:06:26.614Z,98502.28
2023-11-27T11:08:59.604Z,98499.47
2023-11-27T11:11:30.050Z,98493.38
2023-11-27T11:13:58.839Z,98486.69
2023-11-27T11:16:33.413Z,98485.72
2023-11-27T11:19:09.498Z,98484.38
2023-11-27T11:21:48.582Z,98481.41
2023-11-27T11:24:26.171Z,98472.28
2023-11-27T11:27:09.075Z,98461.47
2023-11-27T11:29:44.724Z,98456.59
2023-11-27T11:32:17.569Z,98456.88
2023-11-27T11:34:49.465Z,98447.09
2023-11-27T11:37:19.587Z,98445.28
2023-11-27T11:39:47.804Z,98434.84
2023-11-27T11:42:19.668Z,98428.47
2023-11-27T11:45:15.459Z,98419.75
2023-11-27T11:47:43.632Z,98413.72
2023-11-27T11:50:25.695Z,98422.56
2023-11-27T11:52:54.640Z,98412.22
2023-11-27T11:55:32.250Z,98403.91
2023-11-27T11:58:04.442Z,98413.88
2023-11-27T12:00:43.400Z,98404.88
2023-11-27T12:03:16.982Z,98385.91
2023-11-27T12:05:47.932Z,98390.47
2023-11-27T12:08:16.020Z,98388.84
2023-11-27T12:10:44.786Z,98387.84
2023-11-27T12:13:14.162Z,98377.22
2023-11-27T12:15:42.116Z,98370.84
2023-11-27T12:18:10.829Z,98359.66
2023-11-27T12:20:39.004Z,98363.56
2023-11-27T12:23:07.116Z,98357.69
2023-11-27T12:25:34.816Z,98343.78
2023-11-27T12:28:02.843Z,98346.25
2023-11-27T12:30:31.860Z,98338.72
2023-11-27T12:33:02.951Z,98324.69
2023-11-27T12:35:30.696Z,98322.84
2023-11-27T12:38:02.540Z,98316.13
2023-11-27T12:40:34.647Z,98322.50
2023-11-27T12:43:06.096Z,98309.09
2023-11-27T12:45:37.409Z,98299.41
2023-11-27T12:48:08.383Z,98295.34
2023-11-27T12:50:40.738Z,98292.59
2023-11-27T12:53:10.441Z,98275.41
2023-11-27T12:55:39.653Z,98282.91
2023-11-27T12:58:13.605Z,98269.34
2023-11-27T13:00:45.472Z,98277.00
2023-11-27T13:03:15.356Z,98266.41
2023-11-27T13:05:43.216Z,98259.56
2023-11-27T13:08:10.919Z,98251.38
2023-11-27T13:10:44.178Z,98252.16
2023-11-27T13:13:12.998Z,98239.91
2023-11-27T13:15:41.265Z,98241.41
2023-11-27T13:18:16.947Z,98232.44
2023-11-27T13:20:49.883Z,98223.94
2023-11-27T13:23:18.690Z,98220.03
2023-11-27T13:25:49.998Z,98211.81
2023-11-27T13:28:19.330Z,98207.91
2023-11-27T13:30:52.922Z,98198.91
2023-11-27T13:33:21.918Z,98194.84
2023-11-27T13:35:49.727Z,98193.53
2023-11-27T13:38:18.735Z,98190.59
2023-11-27T13:40:49.308Z,98183.72
2023-11-27T13:43:19.154Z,98176.53
2023-11-27T13:45:48.667Z,98166.25
2023-11-27T13:48:20.652Z,98172.94
2023-11-27T13:50:50.364Z,98159.22
2023-11-27T13:53:18.642Z,98158.22
2023-11-27T13:55:49.242Z,98155.31
2023-11-27T13:58:20.551Z,98146.28
2023-11-27T14:00:50.534Z,98135.69
2023-11-27T14:03:20.228Z,98133.06
2023-11-27T14:05:50.766Z,98125.38
2023-11-27T14:08:21.159Z,98123.75
2023-11-27T14:11:25.820Z,98112.81
2023-11-27T14:14:05.866Z,98105.75
2023-11-27T14:16:35.061Z,98101.53
2023-11-27T14:19:20.878Z,98102.66
2023-11-27T14:22:07.391Z,98103.63
2023-11-27T14:24:45.275Z,98090.56
2023-11-27T14:27:20.895Z,98080.59
2023-11-27T14:29:50.518Z,98081.75
2023-11-27T14:32:19.140Z,98068.66
2023-11-27T14:34:52.652Z,98075.22
2023-11-27T14:37:22.202Z,98064.91
2023-11-27T14:39:51.252Z,98063.44
2023-11-27T14:42:21.249Z,98049.72
2023-11-27T14:44:49.862Z,98048.41
2023-11-27T14:47:20.441Z,98038.63
2023-11-27T14:49:54.804Z,98036.66
2023-11-27T14:52:26.766Z,98031.13
2023-11-27T14:54:54.845Z,98033.72
2023-11-27T14:57:23.145Z,98032.88
2023-11-27T14:59:51.627Z,98026.53
2023-11-27T15:02:22.286Z,98014.78
2023-11-27T15:04:50.322Z,98003.00
2023-11-27T15:07:18.080Z,98004.63
2023-11-27T15:09:47.077Z,97994.47
2023-11-27T15:12:14.994Z,98000.06
2023-11-27T15:14:47.738Z,97986.34
2023-11-27T15:17:15.546Z,97983.56
2023-11-27T15:19:43.262Z,97971.16
2023-11-27T15:22:15.222Z,97969.34
2023-11-27T15:24:42.877Z,97957.72
2023-11-27T15:27:11.879Z,97962.34
2023-11-27T15:29:39.441Z,97951.19
2023-11-27T15:32:08.905Z,97943.16
2023-11-27T15:34:36.711Z,97943.16
2023-11-27T15:37:06.393Z,97934.50
2023-11-27T15:39:34.810Z,97932.69
2023-11-27T15:42:07.338Z,97928.81
2023-11-27T15:44:36.708Z,97927.97
2023-11-27T15:47:06.757Z,97920.44
2023-11-27T15:49:35.428Z,97927.94
2023-11-27T15:52:03.868Z,97918.00
2023-11-27T15:54:31.469Z,97907.50
2023-11-27T15:56:59.143Z,97905.91
2023-11-27T15:59:29.314Z,97894.44
2023-11-27T16:01:58.608Z,97889.75
2023-11-27T16:04:27.018Z,97890.72
2023-11-27T16:06:54.699Z,97886.47
2023-11-27T16:09:22.590Z,97877.81
2023-11-27T16:11:51.391Z,97866.22
2023-11-27T16:14:18.960Z,97867.03
2023-11-27T16:16:48.182Z,97863.75
2023-11-27T16:19:18.971Z,97858.69
2023-11-27T16:21:49.474Z,97862.31
2023-11-27T16:24:17.124Z,97844.47
2023-11-27T16:26:46.315Z,97841.22
2023-11-27T16:29:13.989Z,97844.47
2023-11-27T16:31:41.685Z,97835.66
2023-11-27T16:34:11.808Z,97835.50
2023-11-27T16:36:40.957Z,97841.19
2023-11-27T16:39:13.249Z,97829.09
2023-11-27T16:41:40.921Z,97829.44
2023-11-27T16:44:08.553Z,97827.16
2023-11-27T16:46:36.435Z,97819.31
2023-11-27T16:49:04.123Z,97819.16
2023-11-27T16:51:32.471Z,97816.53
2023-11-27T16:54:01.420Z,97808.16
2023-11-27T16:56:28.193Z,97808.53
2023-11-27T16:58:55.886Z,97813.75
2023-11-27T17:01:23.681Z,97805.25
2023-11-27T17:03:55.128Z,97792.84
2023-11-27T17:06:23.036Z,97793.13
2023-11-27T17:08:52.042Z,97782.31
2023-11-27T17:11:21.101Z,97783.66
2023-11-27T17:13:50.267Z,97772.91
2023-11-27T17:16:18.987Z,97766.34
2023-11-27T17:18:46.885Z,97763.03
2023-11-27T17:21:15.115Z,97761.91
2023-11-27T17:23:46.409Z,97761.59
2023-11-27T17:26:18.763Z,97752.28
2023-11-27T17:28:48.234Z,97748.31
2023-11-27T17:31:17.182Z,97750.66
2023-11-27T17:33:44.982Z,97741.69
2023-11-27T17:36:16.448Z,97751.34
2023-11-27T17:38:45.276Z,97751.34
2023-11-27T17:41:13.160Z,97738.44
2023-11-27T17:43:41.924Z,97735.03
2023-11-27T17:46:12.024Z,97721.47
2023-11-27T17:48:40.640Z,97721.31
2023-11-27T17:51:09.194Z,97718.69
2023-11-27T17:53:37.455Z,97724.75
2023-11-27T17:56:05.725Z,97712.78
2023-11-27T17:58:33.413Z,97710.31
2023-11-27T18:01:01.036Z,97715.09
2023-11-27T18:03:30.347Z,97698.72
2023-11-27T18:05:58.262Z,97707.72
2023-11-27T18:08:26.814Z,97694.75
2023-11-27T18:10:54.567Z,97697.22
2023-11-27T18:13:22.492Z,97695.03
2023-11-27T18:15:50.480Z,97695.69
2023-11-27T18:18:19.406Z,97687.38
2023-11-27T18:20:49.417Z,97694.63
2023-11-27T18:23:22.829Z,97688.00
2023-11-27T18:25:50.984Z,97683.75
2023-11-27T18:28:18.812Z,97683.16
2023-11-27T18:30:46.473Z,97669.44
2023-11-27T18:33:14.328Z,97676.50
2023-11-27T18:35:42.102Z,97665.88
2023-11-27T18:38:11.096Z,97677.72
2023-11-27T18:40:38.855Z,97669.69
2023-11-27T18:43:06.539Z,97667.16
2023-11-27T18:45:34.233Z,97665.25
2023-11-27T18:48:02.362Z,97660.06
2023-11-27T18:50:30.911Z,97657.91
2023-11-27T18:52:59.028Z,97662.78
2023-11-27T18:55:28.644Z,97653.03
2023-11-27T18:57:56.652Z,97653.97
2023-11-27T19:00:24.807Z,97647.63
2023-11-27T19:02:52.740Z,97642.47
2023-11-27T19:05:20.672Z,97636.25
2023-11-27T19:07:52.721Z,97638.88
2023-11-27T19:10:20.841Z,97631.38
2023-11-27T19:12:50.469Z,97625.03
2023-11-27T19:15:20.132Z,97623.72
2023-11-27T19:17:48.260Z,97613.50
2023-11-27T19:20:17.079Z,97605.19
2023-11-27T19:22:47.699Z,97605.38
2023-11-27T19:25:16.073Z,97601.22
2023-11-27T19:27:44.012Z,97606.19
2023-11-27T19:30:13.947Z,97587.88
2023-11-27T19:32:42.327Z,97589.16
2023-11-27T19:35:11.005Z,97588.63
2023-11-27T19:37:39.121Z,97590.53
2023-11-27T19:40:08.500Z,97584.94
2023-11-27T19:42:36.333Z,97584.94
2023-11-27T19:45:04.542Z,97569.25
2023-11-27T19:47:34.029Z,97564.94
2023-11-27T19:50:02.399Z,97560.53
2023-11-27T19:52:30.239Z,97544.19
2023-11-27T19:54:58.077Z,97554.22
2023-11-27T19:57:26.073Z,97546.66
2023-11-27T19:59:55.170Z,97535.53
2023-11-27T20:02:23.514Z,97536.19
2023-11-27T20:04:53.612Z,97543.03
2023-11-27T20:07:23.084Z,97537.28
2023-11-27T20:09:50.137Z,97527.16
2023-11-27T20:12:18.207Z,97529.75
2023-11-27T20:14:46.077Z,97522.13
2023-11-27T20:17:14.199Z,97526.72
2023-11-27T20:19:42.124Z,97516.69
2023-11-27T20:22:11.294Z,97517.97
2023-11-27T20:24:39.062Z,97516.19
2023-11-27T20:27:07.448Z,97513.72
2023-11-27T20:29:36.763Z,97506.31
2023-11-27T20:32:05.510Z,97503.72
2023-11-27T20:34:33.395Z,97505.00
2023-11-27T20:37:01.524Z,97502.56
2023-11-27T20:39:30.791Z,97490.28
2023-11-27T20:41:58.543Z,97496.50
2023-11-27T20:44:26.228Z,97496.34
2023-11-27T20:46:54.259Z,97492.53
2023-11-27T20:49:21.994Z,97496.41
2023-11-27T20:51:49.750Z,97495.44
2023-11-27T20:54:17.598Z,97484.97
2023-11-27T20:56:47.254Z,97484.25
2023-11-27T20:59:15.425Z,97480.44
2023-11-27T21:01:45.398Z,97472.75
2023-11-27T21:04:13.852Z,97477.66
2023-11-27T21:06:43.438Z,97476.09
2023-11-27T21:09:13.344Z,97477.91
2023-11-27T21:11:41.142Z,97471.50
2023-11-27T21:14:10.864Z,97470.31
2023-11-27T21:16:38.646Z,97463.28
2023-11-27T21:19:07.452Z,97471.94
2023-11-27T21:21:35.158Z,97473.75
2023-11-27T21:24:05.530Z,97481.06
2023-11-27T21:26:33.282Z,97462.38
2023-11-27T21:29:00.957Z,97457.03
2023-11-27T21:31:31.871Z,97460.47
2023-11-27T21:34:01.464Z,97458.84
2023-11-27T21:36:30.179Z,97455.41
2023-11-27T21:38:58.169Z,97454.41
2023-11-27T21:41:28.687Z,97453.78
2023-11-27T21:43:56.651Z,97451.41
2023-11-27T21:46:24.793Z,97440.94
2023-11-27T21:48:53.943Z,97440.59
2023-11-27T21:51:21.716Z,97418.91
2023-11-27T21:53:49.491Z,97443.44
2023-11-27T21:56:17.776Z,97430.38
2023-11-27T21:58:45.404Z,97435.41
2023-11-27T22:01:17.396Z,97433.22
2023-11-27T22:03:46.416Z,97434.69
2023-11-27T22:06:15.743Z,97443.75
2023-11-27T22:08:43.530Z,97438.72
2023-11-27T22:11:11.196Z,97450.00
2023-11-27T22:13:38.918Z,97437.97
2023-11-27T22:16:07.696Z,97438.78
2023-11-27T22:18:35.463Z,97432.38
2023-11-27T22:21:03.177Z,97432.38
2023-11-27T22:23:32.263Z,97435.22
2023-11-27T22:25:59.899Z,97427.19
2023-11-27T22:28:27.619Z,97434.84
2023-11-27T22:30:55.273Z,97422.78
2023-11-27T22:33:23.169Z,97429.00
2023-11-27T22:35:50.788Z,97415.72
2023-11-27T22:38:18.479Z,97432.22
2023-11-27T22:40:47.510Z,97419.94
2023-11-27T22:43:15.205Z,97420.16
2023-11-27T22:45:42.833Z,97416.50
2023-11-27T22:48:10.612Z,97417.78
2023-11-27T22:50:38.463Z,97414.75
2023-11-27T22:53:06.099Z,97409.34
2023-11-27T22:55:33.809Z,97403.47
2023-11-27T22:58:03.183Z,97408.72
2023-11-27T23:00:30.915Z,97401.66
2023-11-27T23:02:58.636Z,97400.03
2023-11-27T23:05:26.824Z,97404.69
2023-11-27T23:07:54.464Z,97383.97
2023-11-27T23:10:22.126Z,97394.44
2023-11-27T23:12:49.870Z,97383.34
2023-11-27T23:15:19.328Z,97378.72
2023-11-27T23:17:47.368Z,97383.16
2023-11-27T23:20:15.136Z,97382.16
2023-11-27T23:22:42.755Z,97378.53
2023-11-27T23:25:10.498Z,97375.13
2023-11-27T23:27:38.226Z,97376.75
2023-11-27T23:30:07.417Z,97369.69
2023-11-27T23:32:36.391Z,97372.50
2023-11-27T23:35:05.671Z,97369.88
2023-11-27T23:37:33.395Z,97378.97
2023-11-27T23:40:01.134Z,97371.34
2023-11-27T23:42:28.879Z,97364.09
2023-11-27T23:44:56.530Z,97366.78
2023-11-27T23:47:24.151Z,97364.56
2023-11-27T23:49:53.224Z,97357.09
2023-11-27T23:52:20.839Z,97363.16
2023-11-27T23:54:50.354Z,97356.13
2023-11-27T23:57:18.016Z,97352.50
2023-11-27T23:59:45.597Z,97355.31
